createdAt,value
2019-03-20T00:01:54.652Z,0.60
2019-03-20T00:04:26.394Z,0.49
2019-03-20T00:06:56.682Z,0.49
2019-03-20T00:09:27.077Z,0.53
2019-03-20T00:11:58.908Z,0.56
2019-03-20T00:14:30.557Z,0.57
2019-03-20T00:17:00.714Z,0.56
2019-03-20T00:19:32.784Z,0.56
2019-03-20T00:22:04.104Z,0.55
2019-03-20T00:24:35.396Z,0.52
2019-03-20T00:27:06.350Z,0.52
2019-03-20T00:29:38.636Z,0.49
2019-03-20T00:32:10.242Z,0.46
2019-03-20T00:34:40.464Z,0.45
2019-03-20T00:37:10.787Z,0.44
2019-03-20T00:39:42.034Z,0.43
2019-03-20T00:42:12.322Z,0.43
2019-03-20T00:44:42.498Z,0.43
2019-03-20T00:47:14.408Z,0.38
2019-03-20T00:49:45.792Z,0.39
2019-03-20T00:52:15.974Z,0.42
2019-03-20T00:54:47.017Z,0.43
2019-03-20T00:57:18.230Z,0.41
2019-03-20T00:59:49.566Z,0.40
2019-03-20T01:02:20.076Z,0.39
2019-03-20T01:04:50.260Z,0.36
2019-03-20T01:07:22.068Z,0.32
2019-03-20T01:09:52.650Z,0.32
2019-03-20T01:12:23.085Z,0.33
2019-03-20T01:14:53.304Z,0.35
2019-03-20T01:17:23.635Z,0.35
2019-03-20T01:19:55.643Z,0.34
2019-03-20T01:22:26.016Z,0.31
2019-03-20T01:24:56.316Z,0.30
2019-03-20T01:27:26.518Z,0.30
2019-03-20T01:29:56.733Z,0.30
2019-03-20T01:32:27.081Z,0.30
2019-03-20T01:34:58.104Z,0.29
2019-03-20T01:37:28.361Z,0.29
2019-03-20T01:39:59.439Z,0.27
2019-03-20T01:42:29.665Z,0.25
2019-03-20T01:44:59.987Z,0.25
2019-03-20T01:47:31.104Z,0.23
2019-03-20T01:50:02.425Z,0.22
2019-03-20T01:52:32.685Z,0.20
2019-03-20T01:55:04.803Z,0.19
2019-03-20T01:57:35.137Z,0.16
2019-03-20T02:00:05.907Z,0.15
2019-03-20T02:02:36.111Z,0.16
2019-03-20T02:05:06.798Z,0.16
2019-03-20T02:07:36.963Z,0.13
2019-03-20T02:10:09.009Z,0.10
2019-03-20T02:12:39.146Z,0.07
2019-03-20T02:15:12.628Z,0.07
2019-03-20T02:17:43.552Z,0.03
2019-03-20T02:20:15.243Z,0.01
2019-03-20T02:22:45.549Z,0.00
2019-03-20T02:25:15.795Z,-0.02
2019-03-20T02:27:46.098Z,-0.05
2019-03-20T02:30:17.265Z,-0.06
2019-03-20T02:32:48.978Z,-0.08
2019-03-20T02:35:19.941Z,-0.10
2019-03-20T02:38:13.167Z,-0.12
2019-03-20T02:41:11.192Z,-0.15
2019-03-20T02:44:07.556Z,-0.18
2019-03-20T02:47:03.043Z,-0.19
2019-03-20T02:49:59.602Z,-0.24
2019-03-20T02:52:55.897Z,-0.26
2019-03-20T02:55:53.302Z,-0.29
2019-03-20T02:58:48.885Z,-0.31
2019-03-20T03:01:46.480Z,-0.31
2019-03-20T03:04:43.322Z,-0.32
2019-03-20T03:07:39.146Z,-0.34
2019-03-20T03:10:34.857Z,-0.36
2019-03-20T03:13:30.716Z,-0.40
2019-03-20T03:16:27.241Z,-0.45
2019-03-20T03:19:22.799Z,-0.47
2019-03-20T03:22:19.428Z,-0.48
2019-03-20T03:25:17.065Z,-0.51
2019-03-20T03:28:12.843Z,-0.53
2019-03-20T03:31:09.460Z,-0.55
2019-03-20T03:34:05.265Z,-0.56
2019-03-20T03:37:01.817Z,-0.56
2019-03-20T03:39:56.779Z,-0.55
2019-03-20T03:42:53.331Z,-0.56
2019-03-20T03:45:49.941Z,-0.58
2019-03-20T03:48:45.493Z,-0.60
2019-03-20T03:51:42.803Z,-0.61
2019-03-20T03:54:39.575Z,-0.60
2019-03-20T03:57:36.056Z,-0.63
2019-03-20T04:00:31.897Z,-0.65
2019-03-20T04:03:29.550Z,-0.68
2019-03-20T04:06:35.848Z,-0.72
2019-03-20T04:09:28.656Z,-0.75
2019-03-20T04:12:26.290Z,-0.75
2019-03-20T04:15:22.088Z,-0.77
2019-03-20T04:18:18.348Z,-0.80
2019-03-20T04:21:14.233Z,-0.79
2019-03-20T04:24:11.324Z,-0.80
2019-03-20T04:27:06.320Z,-0.82
2019-03-20T04:30:02.293Z,-0.84
2019-03-20T04:33:00.053Z,-0.88
2019-03-20T04:35:55.807Z,-0.90
2019-03-20T04:38:52.378Z,-0.94
2019-03-20T04:41:48.143Z,-1.03
2019-03-20T04:44:44.638Z,-1.23
2019-03-20T04:47:40.323Z,-1.21
2019-03-20T04:50:36.481Z,-1.18
2019-03-20T04:53:32.517Z,-1.16
2019-03-20T04:56:29.227Z,-1.13
2019-03-20T04:59:27.159Z,-1.11
2019-03-20T05:02:23.956Z,-1.10
2019-03-20T05:05:20.773Z,-1.07
2019-03-20T05:08:15.971Z,-1.06
2019-03-20T05:11:12.439Z,-1.05
2019-03-20T05:14:08.889Z,-1.12
2019-03-20T05:17:05.809Z,-1.06
2019-03-20T05:20:01.327Z,-1.05
2019-03-20T05:22:59.135Z,-1.06
2019-03-20T05:25:54.922Z,-1.04
2019-03-20T05:28:51.667Z,-1.03
2019-03-20T05:31:48.428Z,-1.00
2019-03-20T05:34:45.003Z,-0.97
2019-03-20T05:37:41.706Z,-0.96
2019-03-20T05:40:36.814Z,-0.94
2019-03-20T05:43:33.911Z,-0.89
2019-03-20T05:46:29.900Z,-0.86
2019-03-20T05:49:26.633Z,-0.81
2019-03-20T05:52:22.003Z,-0.81
2019-03-20T05:55:18.512Z,-0.79
2019-03-20T05:58:16.251Z,-0.76
2019-03-20T06:01:13.094Z,-0.72
2019-03-20T06:04:10.960Z,-0.69
2019-03-20T06:07:06.742Z,-0.67
2019-03-20T06:10:03.560Z,-0.64
2019-03-20T06:12:59.085Z,-0.62
2019-03-20T06:15:55.894Z,-0.65
2019-03-20T06:18:52.148Z,-0.66
2019-03-20T06:21:47.960Z,-0.66
2019-03-20T06:24:44.674Z,-0.61
2019-03-20T06:27:40.481Z,-0.54
2019-03-20T06:30:36.304Z,-0.53
2019-03-20T06:33:32.028Z,-0.47
2019-03-20T06:36:28.896Z,-0.47
2019-03-20T06:39:25.616Z,-0.52
2019-03-20T06:42:22.238Z,-0.48
2019-03-20T06:45:18.698Z,-0.39
2019-03-20T06:48:15.402Z,-0.35
2019-03-20T06:51:10.516Z,-0.31
2019-03-20T06:54:08.240Z,-0.23
2019-03-20T06:57:04.768Z,-0.16
2019-03-20T07:00:24.657Z,-0.10
2019-03-20T07:03:22.138Z,-0.04
2019-03-20T07:06:28.022Z,-0.03
2019-03-20T07:09:51.434Z,0.00
2019-03-20T07:12:46.937Z,0.10
2019-03-20T07:15:42.785Z,0.21
2019-03-20T07:18:38.780Z,0.31
2019-03-20T07:21:34.503Z,0.41
2019-03-20T07:24:32.325Z,0.52
2019-03-20T07:27:27.629Z,0.61
2019-03-20T07:30:24.226Z,0.76
2019-03-20T07:33:20.070Z,0.88
2019-03-20T07:36:17.710Z,1.00
2019-03-20T07:39:13.282Z,1.07
2019-03-20T07:42:08.978Z,1.18
2019-03-20T07:45:05.479Z,1.28
2019-03-20T07:48:03.462Z,1.36
2019-03-20T07:50:58.999Z,1.43
2019-03-20T07:53:55.853Z,1.55
2019-03-20T07:56:51.515Z,1.67
2019-03-20T07:59:47.983Z,1.81
2019-03-20T08:02:46.661Z,2.00
2019-03-20T08:05:42.694Z,2.16
2019-03-20T08:08:39.063Z,2.30
2019-03-20T08:11:34.907Z,2.53
2019-03-20T08:14:31.659Z,2.75
2019-03-20T08:17:27.520Z,3.02
2019-03-20T08:20:24.037Z,3.30
2019-03-20T08:23:19.564Z,3.55
2019-03-20T08:26:17.054Z,3.79
2019-03-20T08:29:13.395Z,3.98
2019-03-20T08:32:10.025Z,4.11
2019-03-20T08:35:06.754Z,4.27
2019-03-20T08:38:02.584Z,4.45
2019-03-20T08:40:59.121Z,4.56
2019-03-20T08:43:54.662Z,4.58
2019-03-20T08:46:51.783Z,4.61
2019-03-20T08:49:47.034Z,4.64
2019-03-20T08:52:44.035Z,4.71
2019-03-20T08:55:40.619Z,4.73
2019-03-20T08:58:37.291Z,4.78
2019-03-20T09:04:16.415Z,4.98
2019-03-20T09:06:47.430Z,5.00
2019-03-20T09:09:19.203Z,5.13
2019-03-20T09:11:49.463Z,5.22
2019-03-20T09:14:19.754Z,5.29
2019-03-20T09:16:50.729Z,5.32
2019-03-20T09:19:21.728Z,5.37
2019-03-20T09:21:52.014Z,5.43
2019-03-20T09:24:22.315Z,5.46
2019-03-20T09:26:52.510Z,5.61
2019-03-20T09:29:22.992Z,5.71
2019-03-20T09:31:53.290Z,5.76
2019-03-20T09:34:23.617Z,5.95
2019-03-20T09:36:54.655Z,6.08
2019-03-20T09:39:25.080Z,6.12
2019-03-20T09:41:57.302Z,6.18
2019-03-20T09:44:27.572Z,6.24
2019-03-20T09:46:57.773Z,6.40
2019-03-20T09:49:28.070Z,6.48
2019-03-20T09:51:59.223Z,6.48
2019-03-20T09:54:29.642Z,6.57
2019-03-20T09:56:59.993Z,6.65
2019-03-20T09:59:30.285Z,6.74
2019-03-20T10:02:02.785Z,6.80
2019-03-20T10:04:33.705Z,6.83
2019-03-20T10:07:03.917Z,6.94
2019-03-20T10:09:34.239Z,7.00
2019-03-20T10:12:06.590Z,7.05
2019-03-20T10:14:36.807Z,7.02
2019-03-20T10:17:08.313Z,7.00
2019-03-20T10:19:38.615Z,7.02
2019-03-20T10:22:08.910Z,7.08
2019-03-20T10:24:39.176Z,7.22
2019-03-20T10:27:09.457Z,7.36
2019-03-20T10:29:39.736Z,7.36
2019-03-20T10:32:09.974Z,7.32
2019-03-20T10:34:40.282Z,7.35
2019-03-20T10:37:10.538Z,7.42
2019-03-20T10:39:40.696Z,7.48
2019-03-20T10:42:10.918Z,7.51
2019-03-20T10:45:03.986Z,7.52
2019-03-20T10:48:01.564Z,7.57
2019-03-20T10:50:57.025Z,7.72
2019-03-20T10:53:53.827Z,7.84
2019-03-20T10:56:49.409Z,7.92
2019-03-20T10:59:45.392Z,8.07
2019-03-20T11:02:40.757Z,8.14
2019-03-20T11:05:38.366Z,8.09
2019-03-20T11:08:35.859Z,8.09
2019-03-20T11:11:32.426Z,8.04
2019-03-20T11:14:29.158Z,8.02
2019-03-20T11:17:24.638Z,8.01
2019-03-20T11:20:21.151Z,8.13
2019-03-20T11:23:15.881Z,8.31
2019-03-20T11:26:12.782Z,8.29
2019-03-20T11:29:09.346Z,8.34
2019-03-20T11:32:07.098Z,8.41
2019-03-20T11:35:02.693Z,8.39
2019-03-20T11:38:00.237Z,8.45
2019-03-20T11:40:55.811Z,8.48
2019-03-20T11:43:51.889Z,8.48
2019-03-20T11:46:48.007Z,8.52
2019-03-20T11:49:44.523Z,8.61
2019-03-20T11:52:41.173Z,8.71
2019-03-20T11:55:36.694Z,8.76
2019-03-20T11:58:34.513Z,9.02
2019-03-20T12:01:30.320Z,9.12
2019-03-20T12:04:31.485Z,9.21
2019-03-20T12:07:28.631Z,9.37
2019-03-20T12:10:31.862Z,9.51
2019-03-20T12:13:28.620Z,9.36
2019-03-20T12:16:24.238Z,9.23
2019-03-20T12:19:21.381Z,9.18
2019-03-20T12:22:16.902Z,9.31
2019-03-20T12:25:13.510Z,9.51
2019-03-20T12:28:08.971Z,9.57
2019-03-20T12:31:06.685Z,9.59
2019-03-20T12:34:02.237Z,9.59
2019-03-20T12:36:57.670Z,9.52
2019-03-20T12:39:53.673Z,9.53
2019-03-20T12:42:49.602Z,9.61
2019-03-20T12:45:46.234Z,9.61
2019-03-20T12:48:42.994Z,9.69
2019-03-20T12:51:39.252Z,9.70
2019-03-20T12:54:34.955Z,9.65
2019-03-20T12:57:31.535Z,9.64
2019-03-20T13:00:31.227Z,9.52
2019-03-20T13:03:30.658Z,9.54
2019-03-20T13:06:24.197Z,9.71
2019-03-20T13:09:23.494Z,9.82
2019-03-20T13:12:20.144Z,9.86
2019-03-20T13:15:15.820Z,9.75
2019-03-20T13:18:12.390Z,9.58
2019-03-20T13:21:08.203Z,9.55
2019-03-20T13:24:05.111Z,9.70
2019-03-20T13:27:00.423Z,9.82
2019-03-20T13:29:57.912Z,9.77
2019-03-20T13:32:53.344Z,9.80
2019-03-20T13:35:49.349Z,9.84
2019-03-20T13:38:45.904Z,9.91
2019-03-20T13:41:41.588Z,9.83
2019-03-20T13:44:38.303Z,9.83
2019-03-20T13:47:50.107Z,9.80
2019-03-20T13:50:48.957Z,9.93
2019-03-20T13:53:44.633Z,9.87
2019-03-20T13:56:41.354Z,10.01
2019-03-20T13:59:37.041Z,10.07
2019-03-20T14:02:35.439Z,10.21
2019-03-20T14:05:32.295Z,10.23
2019-03-20T14:08:28.816Z,10.24
2019-03-20T14:11:25.887Z,10.28
2019-03-20T14:14:23.024Z,10.40
2019-03-20T14:17:19.453Z,10.56
2019-03-20T14:20:15.099Z,10.69
2019-03-20T14:23:11.913Z,10.77
2019-03-20T14:26:08.497Z,10.76
2019-03-20T14:29:04.346Z,10.66
2019-03-20T14:32:01.936Z,10.68
2019-03-20T14:34:57.743Z,10.84
2019-03-20T14:37:54.032Z,10.84
2019-03-20T14:40:51.238Z,10.92
2019-03-20T14:43:48.040Z,11.00
2019-03-20T14:46:47.313Z,11.28
2019-03-20T14:49:43.910Z,11.39
2019-03-20T14:52:40.489Z,11.54
2019-03-20T14:55:36.145Z,11.87
2019-03-20T14:58:32.427Z,12.20
2019-03-20T15:01:28.063Z,12.64
2019-03-20T15:04:25.425Z,13.21
2019-03-20T15:07:21.472Z,13.83
2019-03-20T15:10:18.373Z,13.83
2019-03-20T15:13:13.941Z,14.25
2019-03-20T15:16:15.004Z,14.24
2019-03-20T15:19:10.745Z,14.28
2019-03-20T15:22:08.393Z,14.22
2019-03-20T15:25:05.291Z,14.15
2019-03-20T15:28:01.227Z,14.07
2019-03-20T15:30:57.867Z,14.12
2019-03-20T15:33:53.508Z,14.20
2019-03-20T15:36:50.072Z,14.07
2019-03-20T15:39:44.760Z,13.97
2019-03-20T15:42:42.608Z,13.68
2019-03-20T15:45:38.194Z,13.29
2019-03-20T15:48:34.919Z,12.73
2019-03-20T15:51:32.502Z,12.34
2019-03-20T15:54:28.248Z,11.81
2019-03-20T15:57:24.997Z,11.65
2019-03-20T16:00:20.576Z,11.62
2019-03-20T16:03:26.113Z,11.40
2019-03-20T16:06:22.857Z,11.21
2019-03-20T16:09:18.833Z,10.98
2019-03-20T16:12:15.385Z,10.80
2019-03-20T16:15:12.282Z,10.56
2019-03-20T16:18:10.200Z,10.42
2019-03-20T16:21:06.002Z,10.30
2019-03-20T16:24:02.629Z,10.22
2019-03-20T16:26:58.483Z,10.12
2019-03-20T16:29:55.382Z,10.01
2019-03-20T16:32:51.918Z,9.92
2019-03-20T16:35:48.580Z,9.83
2019-03-20T16:38:45.413Z,9.75
2019-03-20T16:41:41.029Z,9.70
2019-03-20T16:44:37.632Z,9.63
2019-03-20T16:47:33.451Z,9.53
2019-03-20T16:50:30.043Z,9.41
2019-03-20T16:53:25.745Z,9.32
2019-03-20T16:56:22.340Z,9.25
2019-03-20T16:59:17.718Z,9.12
2019-03-20T17:02:15.355Z,8.99
2019-03-20T17:05:11.991Z,8.90
2019-03-20T17:08:08.688Z,8.83
2019-03-20T17:11:04.510Z,8.78
2019-03-20T17:14:01.687Z,8.70
2019-03-20T17:16:57.404Z,8.61
2019-03-20T17:19:54.940Z,8.50
2019-03-20T17:22:51.051Z,8.42
2019-03-20T17:25:47.931Z,8.36
2019-03-20T17:28:43.747Z,8.25
2019-03-20T17:31:41.437Z,8.16
2019-03-20T17:34:37.291Z,8.06
2019-03-20T17:37:34.030Z,7.99
2019-03-20T17:40:30.711Z,7.92
2019-03-20T17:43:27.721Z,7.83
2019-03-20T17:46:22.451Z,7.76
2019-03-20T17:49:19.094Z,7.70
2019-03-20T17:52:14.616Z,7.62
2019-03-20T17:55:11.290Z,7.52
2019-03-20T17:58:06.981Z,7.43
2019-03-20T18:01:03.399Z,7.35
2019-03-20T18:04:01.321Z,7.28
2019-03-20T18:06:58.338Z,7.19
2019-03-20T18:09:53.816Z,7.11
2019-03-20T18:12:50.676Z,7.02
2019-03-20T18:15:46.621Z,6.94
2019-03-20T18:18:43.448Z,6.83
2019-03-20T18:21:40.961Z,6.74
2019-03-20T18:24:37.112Z,6.64
2019-03-20T18:27:34.863Z,6.55
2019-03-20T18:30:34.703Z,6.45
2019-03-20T18:33:31.035Z,6.37
2019-03-20T18:36:25.865Z,6.31
2019-03-20T18:39:23.763Z,6.24
2019-03-20T18:42:19.561Z,6.16
2019-03-20T18:45:16.981Z,6.09
2019-03-20T18:48:13.575Z,6.02
2019-03-20T18:51:10.191Z,5.94
2019-03-20T18:54:06.914Z,5.85
2019-03-20T18:57:03.808Z,5.78
2019-03-20T19:00:03.275Z,5.68
2019-03-20T19:03:00.155Z,5.53
2019-03-20T19:06:09.141Z,5.43
2019-03-20T19:09:04.991Z,5.30
2019-03-20T19:12:08.487Z,5.22
2019-03-20T19:14:58.876Z,5.14
2019-03-20T19:17:55.833Z,5.06
2019-03-20T19:20:51.147Z,4.99
2019-03-20T19:23:49.147Z,4.92
2019-03-20T19:26:44.814Z,4.88
2019-03-20T19:29:41.573Z,4.82
2019-03-20T19:32:37.412Z,4.71
2019-03-20T19:35:33.774Z,4.64
2019-03-20T19:38:34.922Z,4.51
2019-03-20T19:41:26.524Z,4.45
2019-03-20T19:44:25.956Z,4.40
2019-03-20T19:47:21.931Z,4.33
2019-03-20T19:50:18.961Z,4.25
2019-03-20T19:53:14.337Z,4.21
2019-03-20T19:56:12.045Z,4.17
2019-03-20T19:59:07.934Z,4.13
2019-03-20T20:02:04.232Z,4.09
2019-03-20T20:05:01.852Z,4.05
2019-03-20T20:07:59.617Z,3.97
2019-03-20T20:10:55.361Z,3.83
2019-03-20T20:13:51.727Z,3.71
2019-03-20T20:16:47.413Z,3.63
2019-03-20T20:19:44.257Z,3.56
2019-03-20T20:22:39.661Z,3.50
2019-03-20T20:25:37.584Z,3.46
2019-03-20T20:28:35.005Z,3.43
2019-03-20T20:31:30.803Z,3.41
2019-03-20T20:34:27.568Z,3.36
2019-03-20T20:37:23.477Z,3.32
2019-03-20T20:40:20.083Z,3.29
2019-03-20T20:43:15.722Z,3.27
2019-03-20T20:46:13.491Z,3.20
2019-03-20T20:49:09.857Z,3.17
2019-03-20T20:52:06.167Z,3.11
2019-03-20T20:55:01.882Z,3.08
2019-03-20T20:57:58.269Z,3.04
2019-03-20T21:00:54.087Z,3.00
2019-03-20T21:03:50.588Z,2.97
2019-03-20T21:06:48.442Z,2.95
2019-03-20T21:09:46.060Z,2.92
2019-03-20T21:12:42.691Z,2.84
2019-03-20T21:15:54.793Z,2.78
2019-03-20T21:19:27.923Z,2.75
2019-03-20T21:22:51.008Z,2.70
2019-03-20T21:25:50.650Z,2.70
2019-03-20T21:29:45.057Z,2.67
2019-03-20T21:32:52.235Z,2.65
2019-03-20T21:36:11.990Z,2.60
2019-03-20T21:39:10.264Z,2.57
2019-03-20T21:42:32.422Z,2.53
2019-03-20T21:45:54.799Z,2.46
2019-03-20T21:48:49.445Z,2.37
2019-03-20T21:51:45.780Z,2.31
2019-03-20T21:55:08.599Z,2.24
2019-03-20T21:58:21.382Z,2.16
2019-03-20T22:01:52.067Z,2.11
2019-03-20T22:04:49.151Z,2.07
2019-03-20T22:07:46.217Z,2.02
2019-03-20T22:11:10.611Z,1.99
2019-03-20T22:14:13.577Z,1.97
2019-03-20T22:17:34.383Z,1.98
2019-03-20T22:21:01.400Z,1.94
2019-03-20T22:24:18.348Z,1.91
2019-03-20T22:27:42.381Z,1.86
2019-03-20T22:30:38.485Z,1.82
2019-03-20T22:33:58.682Z,1.77
2019-03-20T22:36:56.823Z,1.77
2019-03-20T22:40:27.094Z,1.73
2019-03-20T22:43:37.737Z,1.70
2019-03-20T22:46:57.469Z,1.65
2019-03-20T22:50:25.261Z,1.64
2019-03-20T22:53:57.188Z,1.60
2019-03-20T22:57:11.306Z,1.60
2019-03-20T23:00:08.787Z,1.61
2019-03-20T23:03:24.449Z,1.63
2019-03-20T23:06:22.432Z,1.62
2019-03-20T23:09:18.148Z,1.57
2019-03-20T23:12:17.816Z,1.53
2019-03-20T23:15:13.000Z,1.49
2019-03-20T23:18:10.458Z,1.41
2019-03-20T23:21:07.934Z,1.35
2019-03-20T23:24:03.858Z,1.32
2019-03-20T23:27:01.047Z,1.31
2019-03-20T23:29:59.368Z,1.31
2019-03-20T23:32:56.188Z,1.32
2019-03-20T23:35:53.342Z,1.31
2019-03-20T23:38:48.549Z,1.28
2019-03-20T23:41:45.287Z,1.26
2019-03-20T23:44:41.550Z,1.24
2019-03-20T23:47:41.786Z,1.25
2019-03-20T23:50:37.923Z,1.24
2019-03-20T23:53:35.194Z,1.22
2019-03-20T23:56:32.129Z,1.21
2019-03-20T23:59:30.077Z,1.19
